Pisco, Peru
Current Conditions -  °F | °C
As of 12:00 PM on Thursday 23 Oct 2014 (Local Time) from SPSO Reporting Station
Few Clouds Few Clouds  
Wind Chill: 68°   Ceiling: Unl
Heat Index: 68°   Visibility: 6mi
Dew Point: 61°   Wind: 12mph
Humidity: 78%   Direction: 300°WNW
Pressure: 29.94"   Gusts: NA
Location:  13.71°S, 76.22°W
Report Text: SPSO 231700Z 30010KT 280V340 9999 FEW010 20/16 Q1014 RMK FUQUAD NE BIRD HAZARD RWY 22/04 PP000
Loading
Personal Weather Stations






























Interactive Weather Map
Tropical Storm Tracking
New forecast layout! Learn more

10-Day Weather Forecast

Advertisements
Track Severe Weather on mobile